createdAt,value
2024-02-07T00:01:57.920Z,8.10
2024-02-07T00:04:29.196Z,8.20
2024-02-07T00:06:59.913Z,8.10
2024-02-07T00:09:28.291Z,8.10
2024-02-07T00:11:56.647Z,8.10
2024-02-07T00:14:24.974Z,8.10
2024-02-07T00:16:57.323Z,8.10
2024-02-07T00:19:28.885Z,8.30
2024-02-07T00:22:00.493Z,8.30
2024-02-07T00:24:30.940Z,8.30
2024-02-07T00:27:02.249Z,8.30
2024-02-07T00:29:30.571Z,8.30
2024-02-07T00:32:00.345Z,8.30
2024-02-07T00:34:34.633Z,8.30
2024-02-07T00:37:03.949Z,8.40
2024-02-07T00:39:39.036Z,8.40
2024-02-07T00:42:10.441Z,8.50
2024-02-07T00:44:39.378Z,8.40
2024-02-07T00:47:09.468Z,8.40
2024-02-07T00:49:37.902Z,8.40
2024-02-07T00:52:07.559Z,8.30
2024-02-07T00:54:36.142Z,8.30
2024-02-07T00:57:05.366Z,8.30
2024-02-07T00:59:33.972Z,8.30
2024-02-07T01:02:02.936Z,8.30
2024-02-07T01:04:32.701Z,8.30
2024-02-07T01:07:01.079Z,8.30
2024-02-07T01:09:30.907Z,8.40
2024-02-07T01:12:15.756Z,8.30
2024-02-07T01:14:44.096Z,8.30
2024-02-07T01:17:12.424Z,8.20
2024-02-07T01:19:42.204Z,8.10
2024-02-07T01:22:11.652Z,7.90
2024-02-07T01:24:40.120Z,7.80
2024-02-07T01:27:09.075Z,7.70
2024-02-07T01:29:46.597Z,7.70
2024-02-07T01:32:15.289Z,7.60
2024-02-07T01:34:51.601Z,7.60
2024-02-07T01:37:21.470Z,7.60
2024-02-07T01:39:50.213Z,7.60
2024-02-07T01:42:18.586Z,7.50
2024-02-07T01:45:04.055Z,7.40
2024-02-07T01:47:35.279Z,7.30
2024-02-07T01:50:21.275Z,7.30
2024-02-07T01:52:50.998Z,7.10
2024-02-07T01:55:20.168Z,7.00
2024-02-07T01:58:02.587Z,7.00
2024-02-07T02:00:41.658Z,7.00
2024-02-07T02:03:13.692Z,6.90
2024-02-07T02:05:43.599Z,6.90
2024-02-07T02:08:12.845Z,7.00
2024-02-07T02:10:42.705Z,7.00
2024-02-07T02:13:11.476Z,6.90
2024-02-07T02:15:43.103Z,6.80
2024-02-07T02:18:14.434Z,6.80
2024-02-07T02:21:02.305Z,6.80
2024-02-07T02:23:50.079Z,6.80
2024-02-07T02:26:51.010Z,6.80
2024-02-07T02:29:34.306Z,6.80
2024-02-07T02:32:04.220Z,6.70
2024-02-07T02:34:34.266Z,6.70
2024-02-07T02:37:04.180Z,6.70
2024-02-07T02:39:45.504Z,6.70
2024-02-07T02:42:14.164Z,6.80
2024-02-07T02:44:47.028Z,6.80
2024-02-07T02:47:18.349Z,6.70
2024-02-07T02:49:50.312Z,6.70
2024-02-07T02:52:28.463Z,6.70
2024-02-07T02:54:57.923Z,6.70
2024-02-07T02:57:31.914Z,6.70
2024-02-07T03:00:09.734Z,6.70
2024-02-07T03:02:44.681Z,6.80
2024-02-07T03:05:34.078Z,6.70
2024-02-07T03:08:17.217Z,6.70
2024-02-07T03:10:46.068Z,6.70
2024-02-07T03:13:14.752Z,6.70
2024-02-07T03:15:44.726Z,6.70
2024-02-07T03:18:25.568Z,6.80
2024-02-07T03:20:53.941Z,6.90
2024-02-07T03:23:41.344Z,6.90
2024-02-07T03:26:13.826Z,6.80
2024-02-07T03:28:42.901Z,6.80
2024-02-07T03:31:12.715Z,6.80
2024-02-07T03:33:44.756Z,6.90
2024-02-07T03:36:13.387Z,7.00
2024-02-07T03:38:44.029Z,7.10
2024-02-07T03:41:12.551Z,7.20
2024-02-07T03:43:42.433Z,7.20
2024-02-07T03:46:15.806Z,7.10
2024-02-07T03:48:47.838Z,7.10
2024-02-07T03:51:17.372Z,7.20
2024-02-07T03:53:46.746Z,7.30
2024-02-07T03:56:15.354Z,7.30
2024-02-07T03:58:44.413Z,7.30
2024-02-07T04:01:18.361Z,7.50
2024-02-07T04:03:48.722Z,7.60
2024-02-07T04:06:18.021Z,7.70
2024-02-07T04:08:46.696Z,7.70
2024-02-07T04:11:17.547Z,7.70
2024-02-07T04:13:44.988Z,7.80
2024-02-07T04:16:33.312Z,7.80
2024-02-07T04:19:24.544Z,7.80
2024-02-07T04:22:11.238Z,7.70
2024-02-07T04:25:00.032Z,7.80
2024-02-07T04:27:46.586Z,7.70
2024-02-07T04:30:35.821Z,7.50
2024-02-07T04:33:26.831Z,7.30
2024-02-07T04:36:15.026Z,7.30
2024-02-07T04:39:06.852Z,7.20
2024-02-07T04:41:57.901Z,7.10
2024-02-07T04:44:46.896Z,7.00
2024-02-07T04:47:32.954Z,6.90
2024-02-07T04:50:20.634Z,6.90
2024-02-07T04:53:09.593Z,6.90
2024-02-07T04:55:57.895Z,6.80
2024-02-07T04:58:47.585Z,6.80
2024-02-07T05:01:33.821Z,6.70
2024-02-07T05:04:19.849Z,6.70
2024-02-07T05:07:07.333Z,6.80
2024-02-07T05:09:55.453Z,6.80
2024-02-07T05:15:37.860Z,6.80
2024-02-07T05:18:06.846Z,6.80
2024-02-07T05:20:35.256Z,6.80
2024-02-07T05:23:05.401Z,7.00
2024-02-07T05:25:34.209Z,6.90
2024-02-07T05:28:02.613Z,6.90
2024-02-07T05:30:31.284Z,7.00
2024-02-07T05:32:59.753Z,6.90
2024-02-07T05:35:28.299Z,6.90
2024-02-07T05:37:56.644Z,7.10
2024-02-07T05:40:26.766Z,7.10
2024-02-07T05:42:55.164Z,7.20
2024-02-07T05:45:23.550Z,7.40
2024-02-07T05:47:51.897Z,7.60
2024-02-07T05:50:20.245Z,7.60
2024-02-07T05:52:48.942Z,7.60
2024-02-07T05:55:17.557Z,7.60
2024-02-07T05:57:49.001Z,7.70
2024-02-07T06:00:18.305Z,7.80
2024-02-07T06:02:46.859Z,8.00
2024-02-07T06:05:17.958Z,8.00
2024-02-07T06:07:47.140Z,8.10
2024-02-07T06:10:15.832Z,8.10
2024-02-07T06:12:46.408Z,8.10
2024-02-07T06:15:16.461Z,8.20
2024-02-07T06:17:44.979Z,8.30
2024-02-07T06:20:14.184Z,8.20
2024-02-07T06:22:49.855Z,8.30
2024-02-07T06:25:19.322Z,8.30
2024-02-07T06:27:47.927Z,8.30
2024-02-07T06:30:18.490Z,8.50
2024-02-07T06:32:50.070Z,8.50
2024-02-07T06:35:18.783Z,8.50
2024-02-07T06:37:47.268Z,8.50
2024-02-07T06:40:15.836Z,8.50
2024-02-07T06:42:44.195Z,8.60
2024-02-07T06:45:13.080Z,8.60
2024-02-07T06:47:42.996Z,8.50
2024-02-07T06:50:20.075Z,8.60
2024-02-07T06:52:49.140Z,8.60
2024-02-07T06:55:21.093Z,8.80
2024-02-07T06:57:49.787Z,8.70
2024-02-07T07:00:19.626Z,8.70
2024-02-07T07:02:52.472Z,8.70
2024-02-07T07:05:25.382Z,8.70
2024-02-07T07:07:53.947Z,8.70
2024-02-07T07:10:24.402Z,8.80
2024-02-07T07:12:52.841Z,8.80
2024-02-07T07:15:30.304Z,8.80
2024-02-07T07:18:03.736Z,8.80
2024-02-07T07:20:32.798Z,8.80
2024-02-07T07:23:12.085Z,8.70
2024-02-07T07:25:44.707Z,8.70
2024-02-07T07:28:16.440Z,8.60
2024-02-07T07:30:45.055Z,8.60
2024-02-07T07:33:14.980Z,8.60
2024-02-07T07:35:43.726Z,8.50
2024-02-07T07:38:12.258Z,8.50
2024-02-07T07:40:42.272Z,8.50
2024-02-07T07:43:22.583Z,8.40
2024-02-07T07:45:52.945Z,8.30
2024-02-07T07:48:24.579Z,8.10
2024-02-07T07:50:54.943Z,8.20
2024-02-07T07:53:26.327Z,8.20
2024-02-07T07:55:57.546Z,8.00
2024-02-07T07:58:31.770Z,7.80
2024-02-07T08:01:06.199Z,7.60
2024-02-07T08:03:36.005Z,7.40
2024-02-07T08:06:04.933Z,7.30
2024-02-07T08:08:33.457Z,7.10
2024-02-07T08:11:01.995Z,7.00
2024-02-07T08:13:30.400Z,6.80
2024-02-07T08:15:58.850Z,6.70
2024-02-07T08:18:27.281Z,6.60
2024-02-07T08:20:57.096Z,6.40
2024-02-07T08:23:28.041Z,6.20
2024-02-07T08:26:05.053Z,5.90
2024-02-07T08:28:38.839Z,5.60
2024-02-07T08:31:12.935Z,5.40
2024-02-07T08:33:41.923Z,5.20
2024-02-07T08:36:11.979Z,5.10
2024-02-07T08:38:42.411Z,5.10
2024-02-07T08:41:10.952Z,5.10
2024-02-07T08:43:39.658Z,5.00
2024-02-07T08:46:19.542Z,5.00
2024-02-07T08:48:48.520Z,5.00
2024-02-07T08:51:25.462Z,4.90
2024-02-07T08:53:56.685Z,4.90
2024-02-07T08:56:30.029Z,4.90
2024-02-07T08:59:01.575Z,4.90
2024-02-07T09:01:30.071Z,4.80
2024-02-07T09:07:59.377Z,4.40
2024-02-07T09:10:43.585Z,4.10
2024-02-07T09:13:21.004Z,4.00
2024-02-07T09:15:49.425Z,3.80
2024-02-07T09:18:24.731Z,3.80
2024-02-07T09:21:23.502Z,3.80
2024-02-07T09:23:53.165Z,3.70
2024-02-07T09:26:21.572Z,3.70
2024-02-07T09:28:52.998Z,3.70
2024-02-07T09:31:28.641Z,3.70
2024-02-07T09:33:57.200Z,3.70
2024-02-07T09:36:48.988Z,3.70
2024-02-07T09:39:34.496Z,3.60
2024-02-07T09:42:07.123Z,3.60
2024-02-07T09:44:40.049Z,3.50
2024-02-07T09:47:15.700Z,3.50
2024-02-07T09:49:44.998Z,3.50
2024-02-07T09:52:22.748Z,3.40
2024-02-07T09:54:56.271Z,3.40
2024-02-07T09:57:27.760Z,3.30
2024-02-07T09:59:58.990Z,3.30
2024-02-07T10:02:36.472Z,3.30
2024-02-07T10:05:07.537Z,3.10
2024-02-07T10:07:37.549Z,2.90
2024-02-07T10:10:14.453Z,2.70
2024-02-07T10:12:44.285Z,2.60
2024-02-07T10:15:18.897Z,2.50
2024-02-07T10:17:47.975Z,2.60
2024-02-07T10:20:17.567Z,2.70
2024-02-07T10:22:50.865Z,2.60
2024-02-07T10:25:29.626Z,2.50
2024-02-07T10:28:04.134Z,2.50
2024-02-07T10:30:32.748Z,2.50
2024-02-07T10:33:01.907Z,2.40
2024-02-07T10:35:40.672Z,2.40
2024-02-07T10:38:09.574Z,2.40
2024-02-07T10:40:42.566Z,2.40
2024-02-07T10:43:38.660Z,2.40
2024-02-07T10:46:12.328Z,2.40
2024-02-07T10:48:47.476Z,2.40
2024-02-07T10:51:16.561Z,2.50
2024-02-07T10:54:14.792Z,2.50
2024-02-07T10:57:15.679Z,2.50
2024-02-07T11:03:05.729Z,2.50
2024-02-07T11:05:35.440Z,2.60
2024-02-07T11:08:04.736Z,2.60
2024-02-07T11:10:36.897Z,2.60
2024-02-07T11:13:08.240Z,2.70
2024-02-07T11:16:06.966Z,2.70
2024-02-07T11:18:54.206Z,2.70
2024-02-07T11:21:37.763Z,2.70
2024-02-07T11:24:12.875Z,2.70
2024-02-07T11:26:42.490Z,2.70
2024-02-07T11:35:25.948Z,2.60
2024-02-07T11:38:24.268Z,2.60
2024-02-07T11:44:47.953Z,2.60
2024-02-07T11:47:44.482Z,2.60
2024-02-07T11:50:38.373Z,2.60
2024-02-07T11:53:43.679Z,2.60
2024-02-07T11:57:08.614Z,2.70
2024-02-07T11:59:51.286Z,2.70
2024-02-07T12:02:20.193Z,2.80
2024-02-07T12:05:03.254Z,2.90
2024-02-07T12:08:11.782Z,2.90
2024-02-07T12:10:54.981Z,2.70
2024-02-07T12:13:31.600Z,2.80
2024-02-07T12:16:08.407Z,2.90
2024-02-07T12:18:37.636Z,2.90
2024-02-07T12:21:16.170Z,3.00
2024-02-07T12:23:50.063Z,3.00
2024-02-07T12:26:27.106Z,3.10
2024-02-07T12:29:07.967Z,3.20
2024-02-07T12:31:39.007Z,3.30
2024-02-07T12:34:51.034Z,3.20
2024-02-07T12:37:41.903Z,3.20
2024-02-07T12:41:01.336Z,3.20
2024-02-07T12:43:30.345Z,3.20
2024-02-07T12:46:00.275Z,3.10
2024-02-07T12:48:33.461Z,3.00
2024-02-07T12:51:37.928Z,3.00
2024-02-07T12:54:06.676Z,3.10
2024-02-07T12:56:52.628Z,3.00
2024-02-07T12:59:35.563Z,2.90
2024-02-07T13:02:04.889Z,2.80
2024-02-07T13:04:35.155Z,2.70
2024-02-07T13:07:21.634Z,2.70
2024-02-07T13:10:34.648Z,2.70
2024-02-07T13:13:05.530Z,2.70
2024-02-07T13:15:34.039Z,2.60
2024-02-07T13:18:15.640Z,2.60
2024-02-07T13:21:34.100Z,2.70
2024-02-07T13:24:19.156Z,2.70
2024-02-07T13:26:48.938Z,2.60
2024-02-07T13:29:21.362Z,2.60
2024-02-07T13:31:54.208Z,2.50
2024-02-07T13:34:23.641Z,2.50
2024-02-07T13:36:58.534Z,2.60
2024-02-07T13:39:57.537Z,2.60
2024-02-07T13:42:26.629Z,2.70
2024-02-07T13:44:58.088Z,2.60
2024-02-07T13:47:35.614Z,2.60
2024-02-07T13:50:04.362Z,2.50
2024-02-07T13:52:34.656Z,2.40
2024-02-07T13:55:09.071Z,2.30
2024-02-07T13:57:45.491Z,2.30
2024-02-07T14:00:16.725Z,2.30
2024-02-07T14:02:45.523Z,2.20
2024-02-07T14:05:17.949Z,2.20
2024-02-07T14:07:48.319Z,2.00
2024-02-07T14:10:22.532Z,1.90
2024-02-07T14:12:54.292Z,1.80
2024-02-07T14:15:22.813Z,1.90
2024-02-07T14:17:56.761Z,1.80
2024-02-07T14:20:25.633Z,1.80
2024-02-07T14:22:55.976Z,1.70
2024-02-07T14:25:27.414Z,1.70
2024-02-07T14:27:56.034Z,1.60
2024-02-07T14:30:28.938Z,1.60
2024-02-07T14:32:57.554Z,1.60
2024-02-07T14:35:35.186Z,1.60
2024-02-07T14:38:13.582Z,1.70
2024-02-07T14:40:42.030Z,1.70
2024-02-07T14:43:11.030Z,1.60
2024-02-07T14:45:39.599Z,1.60
2024-02-07T14:48:08.667Z,1.60
2024-02-07T14:50:43.706Z,1.60
2024-02-07T14:53:13.738Z,1.60
2024-02-07T14:55:45.526Z,1.50
2024-02-07T14:58:13.901Z,1.50
2024-02-07T15:00:44.464Z,1.40
2024-02-07T15:03:33.053Z,1.40
2024-02-07T15:06:01.789Z,1.40
2024-02-07T15:08:34.445Z,1.40
2024-02-07T15:11:06.681Z,1.40
2024-02-07T15:13:35.117Z,1.40
2024-02-07T15:16:09.824Z,1.40
2024-02-07T15:18:41.698Z,1.40
2024-02-07T15:21:10.059Z,1.40
2024-02-07T15:23:41.835Z,1.40
2024-02-07T15:26:12.824Z,1.40
2024-02-07T15:28:43.942Z,1.40
2024-02-07T15:31:32.735Z,1.20
2024-02-07T15:34:01.128Z,1.10
2024-02-07T15:36:44.185Z,0.90
2024-02-07T15:39:17.160Z,0.70
2024-02-07T15:41:45.648Z,0.70
2024-02-07T15:44:14.241Z,0.60
2024-02-07T15:46:42.745Z,0.60
2024-02-07T15:49:28.027Z,0.60
2024-02-07T15:51:56.778Z,0.50
2024-02-07T15:54:29.573Z,0.40
2024-02-07T15:57:17.056Z,0.40
2024-02-07T16:00:00.085Z,0.40
2024-02-07T16:02:28.838Z,0.30
2024-02-07T16:04:57.443Z,0.30
2024-02-07T16:07:51.609Z,0.30
2024-02-07T16:10:22.228Z,0.30
2024-02-07T16:12:50.989Z,0.20
2024-02-07T16:15:19.451Z,0.20
2024-02-07T16:17:47.902Z,0.20
2024-02-07T16:20:24.853Z,0.20
2024-02-07T16:23:11.989Z,0.20
2024-02-07T16:25:48.677Z,0.20
2024-02-07T16:28:18.591Z,0.20
2024-02-07T16:30:47.955Z,0.20
2024-02-07T16:33:16.479Z,0.10
2024-02-07T16:35:45.791Z,0.20
2024-02-07T16:38:44.958Z,0.20
2024-02-07T16:41:26.628Z,0.10
2024-02-07T16:43:58.164Z,0.10
2024-02-07T16:46:36.369Z,0.10
2024-02-07T16:49:32.185Z,0.10
2024-02-07T16:52:15.746Z,0.10
2024-02-07T16:54:44.150Z,0.10
2024-02-07T16:57:14.059Z,0.10
2024-02-07T16:59:43.636Z,0.10
2024-02-07T17:02:15.010Z,0.10
2024-02-07T17:04:43.989Z,0.10
2024-02-07T17:07:15.502Z,0.10
2024-02-07T17:09:46.754Z,0.20
2024-02-07T17:12:22.313Z,0.20
2024-02-07T17:15:32.031Z,0.10
2024-02-07T17:18:24.603Z,0.20
2024-02-07T17:27:28.663Z,0.20
2024-02-07T17:30:17.843Z,0.20
2024-02-07T17:39:45.005Z,0.20
2024-02-07T17:42:26.899Z,0.20
2024-02-07T17:45:01.307Z,0.10
2024-02-07T17:47:35.530Z,0.20
2024-02-07T17:50:30.222Z,0.10
2024-02-07T17:53:01.672Z,0.10
2024-02-07T17:55:33.283Z,0.10
2024-02-07T17:58:09.993Z,0.10
2024-02-07T18:00:38.900Z,0.10
2024-02-07T18:03:18.044Z,0.10
2024-02-07T18:05:48.196Z,0.10
2024-02-07T18:08:22.288Z,0.10
2024-02-07T18:11:00.362Z,0.10
2024-02-07T18:13:34.500Z,0.10
2024-02-07T18:16:24.545Z,0.10
2024-02-07T18:19:29.088Z,0.10
2024-02-07T18:22:31.466Z,0.10
2024-02-07T18:33:28.035Z,-0.10
2024-02-07T18:36:58.601Z,-0.10
2024-02-07T18:39:55.958Z,-0.20
2024-02-07T18:42:55.033Z,-0.20
2024-02-07T18:45:27.130Z,-0.30
2024-02-07T18:47:55.648Z,-0.30
2024-02-07T18:50:25.979Z,-0.30
2024-02-07T18:52:59.294Z,-0.30
2024-02-07T18:55:50.994Z,-0.30
2024-02-07T18:58:35.053Z,-0.30
2024-02-07T19:01:06.759Z,-0.30
2024-02-07T19:03:42.782Z,-0.40
2024-02-07T19:06:16.477Z,-0.40
2024-02-07T19:08:48.329Z,-0.50
2024-02-07T19:11:40.783Z,-0.50
2024-02-07T19:14:12.440Z,-0.50
2024-02-07T19:16:44.715Z,-0.50
2024-02-07T19:19:13.306Z,-0.50
2024-02-07T19:21:44.624Z,-0.50
2024-02-07T19:31:18.263Z,-0.50
2024-02-07T19:51:12.340Z,-0.40
2024-02-07T19:54:42.061Z,-0.40
2024-02-07T20:00:56.990Z,-0.30
2024-02-07T20:04:01.943Z,-0.20
2024-02-07T20:06:33.090Z,-0.30
2024-02-07T20:09:12.332Z,-0.30
2024-02-07T20:11:43.941Z,-0.30
2024-02-07T20:14:17.596Z,-0.30
2024-02-07T20:16:52.487Z,-0.40
2024-02-07T20:19:23.845Z,-0.30
2024-02-07T20:21:57.638Z,-0.40
2024-02-07T20:25:23.959Z,-0.40
2024-02-07T20:28:14.137Z,-0.30
2024-02-07T20:30:45.809Z,-0.30
2024-02-07T20:33:20.221Z,-0.30
2024-02-07T20:35:54.747Z,-0.30
2024-02-07T20:38:31.888Z,-0.30
2024-02-07T20:41:34.589Z,-0.30
2024-02-07T20:47:58.149Z,-0.30
2024-02-07T20:51:18.114Z,-0.30
2024-02-07T20:57:53.570Z,-0.30
2024-02-07T21:01:16.741Z,-0.40
2024-02-07T21:07:57.474Z,-0.40
2024-02-07T21:11:05.777Z,-0.40
2024-02-07T21:14:03.902Z,-0.30
2024-02-07T21:16:34.373Z,-0.30
2024-02-07T21:19:09.013Z,-0.30
2024-02-07T21:22:27.207Z,-0.30
2024-02-07T21:29:15.045Z,-0.30
2024-02-07T21:31:50.137Z,-0.20
2024-02-07T21:34:21.547Z,-0.20
2024-02-07T21:36:50.311Z,-0.20
2024-02-07T21:43:29.024Z,-0.20
2024-02-07T21:46:17.183Z,-0.20
2024-02-07T21:48:45.950Z,-0.20
2024-02-07T21:51:19.534Z,-0.20
2024-02-07T21:53:53.707Z,-0.20
2024-02-07T21:56:24.198Z,-0.20
2024-02-07T21:58:55.689Z,-0.20
2024-02-07T22:01:47.636Z,-0.20
2024-02-07T22:07:14.249Z,-0.10
2024-02-07T22:09:46.133Z,-0.10
2024-02-07T22:12:54.205Z,-0.10
2024-02-07T22:15:43.723Z,-0.10
2024-02-07T22:18:12.151Z,-0.10
2024-02-07T22:20:46.607Z,-0.10
2024-02-07T22:23:21.222Z,-0.10
2024-02-07T22:26:03.713Z,-0.10
2024-02-07T22:28:51.936Z,-0.10
2024-02-07T22:31:50.273Z,-0.10
2024-02-07T22:34:21.628Z,-0.10
2024-02-07T22:36:50.185Z,-0.10
2024-02-07T22:39:25.887Z,-0.10
2024-02-07T22:41:57.647Z,-0.10
2024-02-07T22:44:27.383Z,-0.10
2024-02-07T22:46:59.053Z,-0.10
2024-02-07T22:49:27.706Z,-0.10
2024-02-07T22:52:16.373Z,-0.10
2024-02-07T22:54:45.057Z,0.00
2024-02-07T22:57:20.888Z,0.00
2024-02-07T23:00:00.346Z,0.00
2024-02-07T23:02:33.712Z,0.00
2024-02-07T23:05:35.301Z,0.00
2024-02-07T23:08:56.372Z,0.00
2024-02-07T23:11:25.398Z,0.00
2024-02-07T23:13:57.021Z,0.00
2024-02-07T23:16:29.955Z,0.00
2024-02-07T23:18:58.499Z,0.00
2024-02-07T23:21:34.633Z,0.00
2024-02-07T23:24:11.379Z,0.00
2024-02-07T23:26:52.460Z,0.00
2024-02-07T23:29:23.645Z,0.00
2024-02-07T23:31:54.734Z,0.00
2024-02-07T23:41:31.246Z,-0.10
2024-02-07T23:44:43.582Z,-0.10
2024-02-07T23:47:15.393Z,-0.10
2024-02-07T23:49:43.805Z,-0.10
2024-02-07T23:52:12.816Z,-0.10
2024-02-07T23:54:41.257Z,-0.10
2024-02-07T23:57:09.809Z,0.00
2024-02-07T23:59:41.160Z,0.00
